createdAt,value
2022-10-28T00:01:48.104Z,25.96
2022-10-28T00:03:48.035Z,25.86
2022-10-28T00:05:47.866Z,25.85
2022-10-28T00:07:47.853Z,26.00
2022-10-28T00:09:48.017Z,25.98
2022-10-28T00:11:48.013Z,25.85
2022-10-28T00:13:48.027Z,26.03
2022-10-28T00:15:48.005Z,25.88
2022-10-28T00:17:48.070Z,25.82
2022-10-28T00:19:48.040Z,25.82
2022-10-28T00:21:47.990Z,25.82
2022-10-28T00:23:47.965Z,25.79
2022-10-28T00:25:47.979Z,25.90
2022-10-28T00:27:47.968Z,26.07
2022-10-28T00:29:48.014Z,26.08
2022-10-28T00:31:48.059Z,25.99
2022-10-28T00:33:48.051Z,26.02
2022-10-28T00:35:48.051Z,26.04
2022-10-28T00:37:47.923Z,25.97
2022-10-28T00:39:47.932Z,25.80
2022-10-28T00:41:48.022Z,26.09
2022-10-28T00:43:48.083Z,26.03
2022-10-28T00:45:47.998Z,26.04
2022-10-28T00:47:47.997Z,26.03
2022-10-28T00:49:48.040Z,26.04
2022-10-28T00:51:48.050Z,26.05
2022-10-28T00:53:48.085Z,26.07
2022-10-28T00:55:47.933Z,26.06
2022-10-28T00:57:47.920Z,25.98
2022-10-28T00:59:48.076Z,25.99
2022-10-28T01:01:48.079Z,26.09
2022-10-28T01:03:48.102Z,26.09
2022-10-28T01:05:48.099Z,26.06
2022-10-28T01:07:48.191Z,25.97
2022-10-28T01:09:48.091Z,25.82
2022-10-28T01:11:48.087Z,25.79
2022-10-28T01:13:48.112Z,26.07
2022-10-28T01:15:48.012Z,25.99
2022-10-28T01:17:48.110Z,25.83
2022-10-28T01:19:48.095Z,25.86
2022-10-28T01:21:47.962Z,25.82
2022-10-28T01:23:47.985Z,25.97
2022-10-28T01:25:48.022Z,25.99
2022-10-28T01:27:48.110Z,25.95
2022-10-28T01:29:48.098Z,25.91
2022-10-28T01:31:47.951Z,25.75
2022-10-28T01:33:48.109Z,25.76
2022-10-28T01:35:48.034Z,25.95
2022-10-28T01:37:48.058Z,25.37
2022-10-28T01:39:47.996Z,26.11
2022-10-28T01:41:48.092Z,25.99
2022-10-28T01:43:48.110Z,26.07
2022-10-28T01:45:48.094Z,26.02
2022-10-28T01:47:48.093Z,26.07
2022-10-28T01:49:48.120Z,26.04
2022-10-28T01:51:48.150Z,26.07
2022-10-28T01:53:48.116Z,26.03
2022-10-28T01:55:48.126Z,26.06
2022-10-28T01:57:48.072Z,26.03
2022-10-28T01:59:48.148Z,26.00
2022-10-28T02:01:48.393Z,26.00
2022-10-28T02:03:48.068Z,26.03
2022-10-28T02:05:48.120Z,25.97
2022-10-28T02:07:48.191Z,25.95
2022-10-28T02:09:48.166Z,26.03
2022-10-28T02:11:48.136Z,25.99
2022-10-28T02:13:48.136Z,25.99
2022-10-28T02:15:48.048Z,25.81
2022-10-28T02:17:48.235Z,25.80
2022-10-28T02:19:48.180Z,25.90
2022-10-28T02:21:48.054Z,25.65
2022-10-28T02:23:48.156Z,25.61
2022-10-28T02:25:48.141Z,25.80
2022-10-28T02:27:48.089Z,25.83
2022-10-28T02:29:48.194Z,25.81
2022-10-28T02:31:48.181Z,25.79
2022-10-28T02:33:48.068Z,25.86
2022-10-28T02:35:48.097Z,25.83
2022-10-28T02:37:48.288Z,25.79
2022-10-28T02:39:48.104Z,25.96
2022-10-28T02:41:48.200Z,25.91
2022-10-28T02:43:48.212Z,25.94
2022-10-28T02:45:48.137Z,26.03
2022-10-28T02:47:48.220Z,25.80
2022-10-28T02:49:48.137Z,25.84
2022-10-28T02:51:48.212Z,25.80
2022-10-28T02:53:48.228Z,25.90
2022-10-28T02:55:48.051Z,25.60
2022-10-28T02:57:48.219Z,25.53
2022-10-28T02:59:48.173Z,26.08
2022-10-28T03:01:48.372Z,26.08
2022-10-28T03:03:48.162Z,26.14
2022-10-28T03:05:48.151Z,25.89
2022-10-28T03:07:48.230Z,26.08
2022-10-28T03:09:48.246Z,26.13
2022-10-28T03:11:48.129Z,26.21
2022-10-28T03:13:48.185Z,26.08
2022-10-28T03:15:48.106Z,26.08
2022-10-28T03:17:48.190Z,26.10
2022-10-28T03:19:48.233Z,26.08
2022-10-28T03:21:48.159Z,26.11
2022-10-28T03:23:48.240Z,26.21
2022-10-28T03:25:48.231Z,26.10
2022-10-28T03:27:48.151Z,26.13
2022-10-28T03:29:48.158Z,26.14
2022-10-28T03:31:48.258Z,26.09
2022-10-28T03:33:48.289Z,26.11
2022-10-28T03:35:48.192Z,26.18
2022-10-28T03:37:48.196Z,26.08
2022-10-28T03:39:48.242Z,26.09
2022-10-28T03:41:48.319Z,26.11
2022-10-28T03:43:48.236Z,26.03
2022-10-28T03:45:48.227Z,26.08
2022-10-28T03:47:48.092Z,26.03
2022-10-28T03:49:48.111Z,25.88
2022-10-28T03:51:48.272Z,26.08
2022-10-28T03:53:48.278Z,26.11
2022-10-28T03:55:48.275Z,26.07
2022-10-28T03:57:48.146Z,26.11
2022-10-28T03:59:48.278Z,26.08
2022-10-28T04:01:48.410Z,26.10
2022-10-28T04:03:48.265Z,26.10
2022-10-28T04:05:48.276Z,26.22
2022-10-28T04:07:48.274Z,26.08
2022-10-28T04:09:48.396Z,26.08
2022-10-28T04:11:48.209Z,26.08
2022-10-28T04:13:48.351Z,26.09
2022-10-28T04:15:48.247Z,26.08
2022-10-28T04:17:48.297Z,26.08
2022-10-28T04:19:48.256Z,26.08
2022-10-28T04:21:48.278Z,26.05
2022-10-28T04:23:48.341Z,26.08
2022-10-28T04:25:48.330Z,26.08
2022-10-28T04:27:48.329Z,26.08
2022-10-28T04:29:48.289Z,26.08
2022-10-28T04:31:51.364Z,26.11
2022-10-28T04:33:48.220Z,26.08
2022-10-28T04:35:48.326Z,26.07
2022-10-28T04:37:48.227Z,26.08
2022-10-28T04:39:48.127Z,26.07
2022-10-28T04:41:48.364Z,26.04
2022-10-28T04:43:48.211Z,26.08
2022-10-28T04:45:48.320Z,26.08
2022-10-28T04:47:48.330Z,26.08
2022-10-28T04:49:48.320Z,26.11
2022-10-28T04:51:48.299Z,25.99
2022-10-28T04:53:48.363Z,26.04
2022-10-28T04:55:48.368Z,26.07
2022-10-28T04:57:48.311Z,25.99
2022-10-28T04:59:48.301Z,26.02
2022-10-28T05:01:48.367Z,26.00
2022-10-28T05:03:48.302Z,26.03
2022-10-28T05:05:48.275Z,26.04
2022-10-28T05:07:48.352Z,25.99
2022-10-28T05:09:48.360Z,26.04
2022-10-28T05:11:48.318Z,26.07
2022-10-28T05:13:48.396Z,25.99
2022-10-28T05:15:48.318Z,26.00
2022-10-28T05:17:48.365Z,26.00
2022-10-28T05:19:48.204Z,25.99
2022-10-28T05:21:48.454Z,25.97
2022-10-28T05:23:48.387Z,26.00
2022-10-28T05:25:48.334Z,25.92
2022-10-28T05:27:48.392Z,25.97
2022-10-28T05:29:48.371Z,25.64
2022-10-28T05:31:48.265Z,25.82
2022-10-28T05:33:48.412Z,25.65
2022-10-28T05:35:48.341Z,25.90
2022-10-28T05:37:48.402Z,25.76
2022-10-28T05:39:48.315Z,24.73
2022-10-28T05:41:48.435Z,24.68
2022-10-28T05:43:48.270Z,24.55
2022-10-28T05:45:48.278Z,24.52
2022-10-28T05:47:48.362Z,24.54
2022-10-28T05:49:48.253Z,24.37
2022-10-28T05:51:48.421Z,24.43
2022-10-28T05:53:48.248Z,24.37
2022-10-28T05:55:48.413Z,24.24
2022-10-28T05:57:48.393Z,24.38
2022-10-28T05:59:48.324Z,24.38
2022-10-28T06:01:48.456Z,24.23
2022-10-28T06:03:48.370Z,24.20
2022-10-28T06:05:48.423Z,24.15
2022-10-28T06:07:48.396Z,24.10
2022-10-28T06:09:48.499Z,24.12
2022-10-28T06:11:46.877Z,24.20
2022-10-28T06:13:46.920Z,24.21
2022-10-28T06:15:46.800Z,24.21
2022-10-28T06:17:46.909Z,24.29
2022-10-28T06:19:46.878Z,24.18
2022-10-28T06:21:46.868Z,24.20
2022-10-28T06:23:46.860Z,24.19
2022-10-28T06:25:46.987Z,24.16
2022-10-28T06:27:46.830Z,24.14
2022-10-28T06:29:46.852Z,24.10
2022-10-28T06:31:46.765Z,24.34
2022-10-28T06:33:46.934Z,24.18
2022-10-28T06:35:46.925Z,24.30
2022-10-28T06:37:46.944Z,24.38
2022-10-28T06:39:46.838Z,24.37
2022-10-28T06:41:46.956Z,24.38
2022-10-28T06:43:46.817Z,24.40
2022-10-28T06:45:46.927Z,24.37
2022-10-28T06:47:48.477Z,24.62
2022-10-28T06:49:48.473Z,24.57
2022-10-28T06:51:48.551Z,24.51
2022-10-28T06:53:48.493Z,24.54
2022-10-28T06:55:48.496Z,24.66
2022-10-28T06:57:48.465Z,24.89
2022-10-28T06:59:48.421Z,24.76
2022-10-28T07:01:48.525Z,24.97
2022-10-28T07:03:48.424Z,25.58
2022-10-28T07:05:48.522Z,25.63
2022-10-28T07:07:48.476Z,25.46
2022-10-28T07:09:48.377Z,25.40
2022-10-28T07:11:52.312Z,25.81
2022-10-28T07:13:49.135Z,25.93
2022-10-28T07:15:48.349Z,25.84
2022-10-28T07:17:48.553Z,25.92
2022-10-28T07:19:48.544Z,25.81
2022-10-28T07:21:48.461Z,25.89
2022-10-28T07:23:48.537Z,25.90
2022-10-28T07:25:48.560Z,25.82
2022-10-28T07:27:48.542Z,25.83
2022-10-28T07:29:48.467Z,25.86
2022-10-28T07:31:48.542Z,25.86
2022-10-28T07:33:48.391Z,25.86
2022-10-28T07:35:48.556Z,25.86
2022-10-28T07:37:48.529Z,25.82
2022-10-28T07:39:48.561Z,25.80
2022-10-28T07:41:48.553Z,25.80
2022-10-28T07:43:48.585Z,25.81
2022-10-28T07:45:48.516Z,25.77
2022-10-28T07:47:48.537Z,25.87
2022-10-28T07:49:48.568Z,25.86
2022-10-28T07:51:48.466Z,25.83
2022-10-28T07:53:48.630Z,25.79
2022-10-28T07:55:48.596Z,25.86
2022-10-28T07:57:48.594Z,25.86
2022-10-28T07:59:48.480Z,25.72
2022-10-28T08:01:48.697Z,25.65
2022-10-28T08:03:48.535Z,25.72
2022-10-28T08:05:48.542Z,25.79
2022-10-28T08:07:48.604Z,25.65
2022-10-28T08:09:48.474Z,25.65
2022-10-28T08:11:48.562Z,25.60
2022-10-28T08:13:48.593Z,25.61
2022-10-28T08:15:48.566Z,25.57
2022-10-28T08:17:48.508Z,25.75
2022-10-28T08:19:48.459Z,25.75
2022-10-28T08:21:48.586Z,25.92
2022-10-28T08:23:48.436Z,25.81
2022-10-28T08:25:48.576Z,25.80
2022-10-28T08:27:48.554Z,25.75
2022-10-28T08:29:48.625Z,25.62
2022-10-28T08:31:48.573Z,25.60
2022-10-28T08:33:48.543Z,25.52
2022-10-28T08:35:48.626Z,25.47
2022-10-28T08:37:48.598Z,25.54
2022-10-28T08:39:48.593Z,25.56
2022-10-28T08:41:48.614Z,25.78
2022-10-28T08:43:57.340Z,25.81
2022-10-28T08:45:48.610Z,25.85
2022-10-28T08:47:48.567Z,25.77
2022-10-28T08:49:49.447Z,25.76
2022-10-28T08:51:48.604Z,25.75
2022-10-28T08:53:48.601Z,25.52
2022-10-28T08:55:48.598Z,25.57
2022-10-28T08:57:48.515Z,25.52
2022-10-28T08:59:48.521Z,25.65
2022-10-28T09:01:48.690Z,25.80
2022-10-28T09:03:48.491Z,25.91
2022-10-28T09:05:48.607Z,25.84
2022-10-28T09:07:48.565Z,25.80
2022-10-28T09:09:48.656Z,25.78
2022-10-28T09:11:48.584Z,25.75
2022-10-28T09:13:48.674Z,25.40
2022-10-28T09:15:48.649Z,25.71
2022-10-28T09:17:48.640Z,25.71
2022-10-28T09:19:48.649Z,25.74
2022-10-28T09:21:48.671Z,25.50
2022-10-28T09:23:48.585Z,25.42
2022-10-28T09:25:48.817Z,25.63
2022-10-28T09:27:48.637Z,25.72
2022-10-28T09:29:48.603Z,25.80
2022-10-28T09:31:48.620Z,25.83
2022-10-28T09:33:48.684Z,25.39
2022-10-28T09:35:48.583Z,26.02
2022-10-28T09:37:48.668Z,25.29
2022-10-28T09:39:48.658Z,25.42
2022-10-28T09:41:48.580Z,25.55
2022-10-28T09:43:48.674Z,25.62
2022-10-28T09:45:48.577Z,25.61
2022-10-28T09:47:48.665Z,25.65
2022-10-28T09:49:48.684Z,25.80
2022-10-28T09:51:48.604Z,25.75
2022-10-28T09:53:48.684Z,25.89
2022-10-28T09:55:48.586Z,25.86
2022-10-28T09:57:48.685Z,25.80
2022-10-28T09:59:48.671Z,25.52
2022-10-28T10:01:48.768Z,25.52
2022-10-28T10:03:48.573Z,25.80
2022-10-28T10:05:48.692Z,25.75
2022-10-28T10:07:48.708Z,25.72
2022-10-28T10:09:48.649Z,25.54
2022-10-28T10:11:48.704Z,25.52
2022-10-28T10:13:48.705Z,25.52
2022-10-28T10:15:48.621Z,25.64
2022-10-28T10:17:48.703Z,25.74
2022-10-28T10:19:50.502Z,25.82
2022-10-28T10:21:48.724Z,25.84
2022-10-28T10:23:48.648Z,25.80
2022-10-28T10:25:48.735Z,25.86
2022-10-28T10:27:48.650Z,25.43
2022-10-28T10:29:48.746Z,25.52
2022-10-28T10:31:48.626Z,25.54
2022-10-28T10:33:48.679Z,25.65
2022-10-28T10:35:48.726Z,25.80
2022-10-28T10:37:48.709Z,25.83
2022-10-28T10:39:48.678Z,25.80
2022-10-28T10:41:48.744Z,25.80
2022-10-28T10:43:48.646Z,25.75
2022-10-28T10:45:48.579Z,25.80
2022-10-28T10:47:48.744Z,25.38
2022-10-28T10:49:48.740Z,25.57
2022-10-28T10:51:48.730Z,25.46
2022-10-28T10:53:48.735Z,25.65
2022-10-28T10:55:48.667Z,25.49
2022-10-28T10:57:48.706Z,25.54
2022-10-28T10:59:48.745Z,25.49
2022-10-28T11:01:48.940Z,25.41
2022-10-28T11:03:48.792Z,25.64
2022-10-28T11:05:55.164Z,25.61
2022-10-28T11:07:48.654Z,25.60
2022-10-28T11:09:48.767Z,25.52
2022-10-28T11:11:48.759Z,25.47
2022-10-28T11:13:48.718Z,25.39
2022-10-28T11:15:48.759Z,25.52
2022-10-28T11:17:48.617Z,25.61
2022-10-28T11:19:48.656Z,25.65
2022-10-28T11:21:48.788Z,25.62
2022-10-28T11:23:48.772Z,25.60
2022-10-28T11:25:48.763Z,25.54
2022-10-28T11:27:51.812Z,25.52
2022-10-28T11:29:48.753Z,25.52
2022-10-28T11:31:48.781Z,25.25
2022-10-28T11:33:48.796Z,25.92
2022-10-28T11:35:48.805Z,25.97
2022-10-28T11:37:48.788Z,25.90
2022-10-28T11:39:48.821Z,25.77
2022-10-28T11:41:48.786Z,25.78
2022-10-28T11:43:52.131Z,25.62
2022-10-28T11:45:51.336Z,25.51
2022-10-28T11:47:48.710Z,25.39
2022-10-28T11:49:48.846Z,25.41
2022-10-28T11:51:48.822Z,25.74
2022-10-28T11:53:48.792Z,25.63
2022-10-28T11:55:48.778Z,25.79
2022-10-28T11:57:48.747Z,25.71
2022-10-28T11:59:48.845Z,25.54
2022-10-28T12:01:48.841Z,25.47
2022-10-28T12:03:48.783Z,25.23
2022-10-28T12:05:48.807Z,25.26
2022-10-28T12:07:48.777Z,24.51
2022-10-28T12:09:48.841Z,25.31
2022-10-28T12:11:48.817Z,25.54
2022-10-28T12:13:48.706Z,25.52
2022-10-28T12:15:48.798Z,25.52
2022-10-28T12:17:48.750Z,25.53
2022-10-28T12:19:48.823Z,25.61
2022-10-28T12:21:48.752Z,25.47
2022-10-28T12:23:48.867Z,25.52
2022-10-28T12:25:48.758Z,25.40
2022-10-28T12:27:48.871Z,25.46
2022-10-28T12:29:48.746Z,25.60
2022-10-28T12:31:48.879Z,25.54
2022-10-28T12:33:48.784Z,25.56
2022-10-28T12:35:48.796Z,25.52
2022-10-28T12:37:48.967Z,25.75
2022-10-28T12:39:48.906Z,25.65
2022-10-28T12:41:48.748Z,25.65
2022-10-28T12:43:48.884Z,25.73
2022-10-28T12:45:48.878Z,25.58
2022-10-28T12:47:48.947Z,25.61
2022-10-28T12:49:48.855Z,25.52
2022-10-28T12:51:48.814Z,25.52
2022-10-28T12:53:48.803Z,25.65
2022-10-28T12:55:48.947Z,25.63
2022-10-28T12:57:48.753Z,25.64
2022-10-28T12:59:48.859Z,25.56
2022-10-28T13:01:48.883Z,25.75
2022-10-28T13:03:48.866Z,25.65
2022-10-28T13:05:48.900Z,25.62
2022-10-28T13:07:48.857Z,25.62
2022-10-28T13:09:48.883Z,25.63
2022-10-28T13:11:48.764Z,25.65
2022-10-28T13:13:48.873Z,25.75
2022-10-28T13:15:48.877Z,25.58
2022-10-28T13:17:48.762Z,25.80
2022-10-28T13:19:48.831Z,25.74
2022-10-28T13:21:48.882Z,25.80
2022-10-28T13:23:48.926Z,25.65
2022-10-28T13:25:48.808Z,25.47
2022-10-28T13:27:48.879Z,25.41
2022-10-28T13:29:48.879Z,25.41
2022-10-28T13:31:48.877Z,25.46
2022-10-28T13:33:48.931Z,25.63
2022-10-28T13:35:48.941Z,25.81
2022-10-28T13:37:48.868Z,25.85
2022-10-28T13:39:48.942Z,25.90
2022-10-28T13:41:49.125Z,25.97
2022-10-28T13:43:49.030Z,25.86
2022-10-28T13:45:48.907Z,25.91
2022-10-28T13:47:48.815Z,25.91
2022-10-28T13:49:48.805Z,25.64
2022-10-28T13:51:48.940Z,25.61
2022-10-28T13:53:48.949Z,25.75
2022-10-28T13:55:48.929Z,25.72
2022-10-28T13:57:48.900Z,25.79
2022-10-28T13:59:48.915Z,25.75
2022-10-28T14:02:01.982Z,25.80
2022-10-28T14:03:48.991Z,25.65
2022-10-28T14:05:48.873Z,25.64
2022-10-28T14:07:48.952Z,25.74
2022-10-28T14:09:48.995Z,25.72
2022-10-28T14:11:48.906Z,25.65
2022-10-28T14:13:48.841Z,25.65
2022-10-28T14:15:49.026Z,25.64
2022-10-28T14:17:48.984Z,25.62
2022-10-28T14:19:48.982Z,25.65
2022-10-28T14:21:48.946Z,25.60
2022-10-28T14:23:48.879Z,25.52
2022-10-28T14:25:48.967Z,25.55
2022-10-28T14:27:48.964Z,25.49
2022-10-28T14:29:48.859Z,25.25
2022-10-28T14:31:48.941Z,25.45
2022-10-28T14:33:48.998Z,25.41
2022-10-28T14:35:48.979Z,25.35
2022-10-28T14:37:49.073Z,25.37
2022-10-28T14:39:49.015Z,25.32
2022-10-28T14:41:48.988Z,25.42
2022-10-28T14:43:49.271Z,25.39
2022-10-28T14:45:49.009Z,25.36
2022-10-28T14:47:49.003Z,25.33
2022-10-28T14:49:49.058Z,25.36
2022-10-28T14:51:49.009Z,25.22
2022-10-28T14:53:48.868Z,25.39
2022-10-28T14:55:49.139Z,25.26
2022-10-28T14:57:48.917Z,25.19
2022-10-28T14:59:49.025Z,25.21
2022-10-28T15:01:49.167Z,25.65
2022-10-28T15:03:49.028Z,25.57
2022-10-28T15:05:48.957Z,25.80
2022-10-28T15:07:48.967Z,25.63
2022-10-28T15:09:49.002Z,25.61
2022-10-28T15:11:48.952Z,25.81
2022-10-28T15:13:48.920Z,25.80
2022-10-28T15:15:49.052Z,25.32
2022-10-28T15:17:49.040Z,25.45
2022-10-28T15:19:49.025Z,25.63
2022-10-28T15:21:48.998Z,25.60
2022-10-28T15:23:49.030Z,25.38
2022-10-28T15:25:49.099Z,25.29
2022-10-28T15:27:48.983Z,25.28
2022-10-28T15:29:49.039Z,25.44
2022-10-28T15:31:49.016Z,25.37
2022-10-28T15:33:49.072Z,25.38
2022-10-28T15:35:49.033Z,25.26
2022-10-28T15:37:49.056Z,25.09
2022-10-28T15:39:49.046Z,24.94
2022-10-28T15:41:49.052Z,24.76
2022-10-28T15:43:48.899Z,24.66
2022-10-28T15:45:48.936Z,24.67
2022-10-28T15:47:48.857Z,24.66
2022-10-28T15:49:49.079Z,24.52
2022-10-28T15:51:49.044Z,24.47
2022-10-28T15:53:49.081Z,24.47
2022-10-28T15:56:07.536Z,24.41
2022-10-28T15:57:49.001Z,24.46
2022-10-28T15:59:49.151Z,24.44
2022-10-28T16:01:49.092Z,24.41
2022-10-28T16:03:49.076Z,24.40
2022-10-28T16:05:49.035Z,24.79
2022-10-28T16:07:49.044Z,24.37
2022-10-28T16:09:48.996Z,24.33
2022-10-28T16:11:49.098Z,24.34
2022-10-28T16:13:49.045Z,24.33
2022-10-28T16:15:49.112Z,24.36
2022-10-28T16:17:48.994Z,24.28
2022-10-28T16:19:49.063Z,24.32
2022-10-28T16:21:49.076Z,24.22
2022-10-28T16:23:49.120Z,24.21
2022-10-28T16:25:48.965Z,24.22
2022-10-28T16:27:49.035Z,24.22
2022-10-28T16:29:49.090Z,24.20
2022-10-28T16:31:49.132Z,27.50
2022-10-28T16:33:49.122Z,25.93
2022-10-28T16:35:49.139Z,25.90
2022-10-28T16:37:53.779Z,25.99
2022-10-28T16:39:49.115Z,25.91
2022-10-28T16:41:49.082Z,25.94
2022-10-28T16:43:49.068Z,25.97
2022-10-28T16:45:49.008Z,25.93
2022-10-28T16:47:49.049Z,25.95
2022-10-28T16:49:52.630Z,26.07
2022-10-28T16:51:49.077Z,25.88
2022-10-28T16:53:49.137Z,25.96
2022-10-28T16:55:49.086Z,25.97
2022-10-28T16:57:49.852Z,25.84
2022-10-28T16:59:49.070Z,25.96
2022-10-28T17:01:49.209Z,25.99
2022-10-28T17:03:49.126Z,25.86
2022-10-28T17:05:49.058Z,26.08
2022-10-28T17:07:49.156Z,26.02
2022-10-28T17:09:49.062Z,25.97
2022-10-28T17:11:49.068Z,25.94
2022-10-28T17:13:49.134Z,25.91
2022-10-28T17:15:49.157Z,25.99
2022-10-28T17:17:49.113Z,26.06
2022-10-28T17:19:49.109Z,26.04
2022-10-28T17:21:49.033Z,25.92
2022-10-28T17:23:49.087Z,25.91
2022-10-28T17:25:49.178Z,26.07
2022-10-28T17:27:49.067Z,26.04
2022-10-28T17:29:49.229Z,26.00
2022-10-28T17:31:49.079Z,26.07
2022-10-28T17:33:49.143Z,26.03
2022-10-28T17:35:49.127Z,25.58
2022-10-28T17:37:49.137Z,25.96
2022-10-28T17:39:49.164Z,25.97
2022-10-28T17:41:49.146Z,26.02
2022-10-28T17:43:49.202Z,25.94
2022-10-28T17:45:49.005Z,25.96
2022-10-28T17:47:49.184Z,25.91
2022-10-28T17:49:49.184Z,25.97
2022-10-28T17:51:49.140Z,25.97
2022-10-28T17:53:49.103Z,25.85
2022-10-28T17:55:49.081Z,25.82
2022-10-28T17:57:49.235Z,25.90
2022-10-28T17:59:49.020Z,26.06
2022-10-28T18:01:49.338Z,25.90
2022-10-28T18:03:49.150Z,25.99
2022-10-28T18:05:49.207Z,26.05
2022-10-28T18:07:49.226Z,26.06
2022-10-28T18:09:49.220Z,26.04
2022-10-28T18:11:49.055Z,26.07
2022-10-28T18:13:49.204Z,25.94
2022-10-28T18:15:49.103Z,25.84
2022-10-28T18:17:49.246Z,25.85
2022-10-28T18:19:49.217Z,26.05
2022-10-28T18:21:49.084Z,26.07
2022-10-28T18:23:49.254Z,26.06
2022-10-28T18:25:49.220Z,26.05
2022-10-28T18:27:49.239Z,26.07
2022-10-28T18:29:49.239Z,26.06
2022-10-28T18:31:49.190Z,26.04
2022-10-28T18:33:49.177Z,26.06
2022-10-28T18:35:49.169Z,26.06
2022-10-28T18:37:49.151Z,26.07
2022-10-28T18:39:49.265Z,26.11
2022-10-28T18:41:49.081Z,25.98
2022-10-28T18:43:49.136Z,25.80
2022-10-28T18:45:49.043Z,26.00
2022-10-28T18:47:49.243Z,26.03
2022-10-28T18:49:49.195Z,26.08
2022-10-28T18:51:49.201Z,25.99
2022-10-28T18:53:49.262Z,25.99
2022-10-28T18:55:49.099Z,26.07
2022-10-28T18:57:49.165Z,25.99
2022-10-28T19:00:16.988Z,26.02
2022-10-28T19:01:49.332Z,25.94
2022-10-28T19:03:49.276Z,25.80
2022-10-28T19:05:49.252Z,25.83
2022-10-28T19:07:49.272Z,26.04
2022-10-28T19:09:49.278Z,25.86
2022-10-28T19:11:49.281Z,25.89
2022-10-28T19:13:49.321Z,25.88
2022-10-28T19:15:49.280Z,26.06
2022-10-28T19:17:49.227Z,25.91
2022-10-28T19:19:49.217Z,26.07
2022-10-28T19:21:49.184Z,26.08
2022-10-28T19:23:49.327Z,26.02
2022-10-28T19:25:49.269Z,26.16
2022-10-28T19:27:49.224Z,26.14
2022-10-28T19:29:49.525Z,25.99
2022-10-28T19:31:49.292Z,26.08
2022-10-28T19:33:49.268Z,26.06
2022-10-28T19:35:49.205Z,26.07
2022-10-28T19:37:49.455Z,26.07
2022-10-28T19:39:52.982Z,25.99
2022-10-28T19:41:49.367Z,25.99
2022-10-28T19:43:51.445Z,26.00
2022-10-28T19:45:49.297Z,25.97
2022-10-28T19:47:49.195Z,26.02
2022-10-28T19:49:49.315Z,25.96
2022-10-28T19:51:49.193Z,25.90
2022-10-28T19:53:49.316Z,25.85
2022-10-28T19:55:49.293Z,25.62
2022-10-28T19:57:51.988Z,25.75
2022-10-28T19:59:49.324Z,25.77
2022-10-28T20:01:49.453Z,25.90
2022-10-28T20:03:49.554Z,25.90
2022-10-28T20:05:49.386Z,25.34
2022-10-28T20:07:49.253Z,25.77
2022-10-28T20:09:49.418Z,25.82
2022-10-28T20:11:49.373Z,25.86
2022-10-28T20:13:49.413Z,25.88
2022-10-28T20:15:49.203Z,26.03
2022-10-28T20:17:49.268Z,25.93
2022-10-28T20:19:49.341Z,26.04
2022-10-28T20:21:49.377Z,25.95
2022-10-28T20:23:49.238Z,25.90
2022-10-28T20:25:49.352Z,26.04
2022-10-28T20:27:49.354Z,26.13
2022-10-28T20:29:49.368Z,26.02
2022-10-28T20:31:49.232Z,26.05
2022-10-28T20:33:49.292Z,25.99
2022-10-28T20:35:49.241Z,25.90
2022-10-28T20:37:49.356Z,25.89
2022-10-28T20:39:51.324Z,25.94
2022-10-28T20:41:49.409Z,26.00
2022-10-28T20:43:49.394Z,26.07
2022-10-28T20:45:49.413Z,26.06
2022-10-28T20:47:49.402Z,25.90
2022-10-28T20:49:49.346Z,26.04
2022-10-28T20:51:49.400Z,26.07
2022-10-28T20:53:49.240Z,25.91
2022-10-28T20:55:49.341Z,25.80
2022-10-28T20:57:49.346Z,25.84
2022-10-28T20:59:49.290Z,25.90
2022-10-28T21:01:49.454Z,25.91
2022-10-28T21:03:49.631Z,25.81
2022-10-28T21:05:49.368Z,26.04
2022-10-28T21:07:49.404Z,25.93
2022-10-28T21:09:49.409Z,26.09
2022-10-28T21:11:49.411Z,26.13
2022-10-28T21:13:49.646Z,26.08
2022-10-28T21:15:54.576Z,26.08
2022-10-28T21:17:49.246Z,26.08
2022-10-28T21:19:49.424Z,26.06
2022-10-28T21:21:49.459Z,26.08
2022-10-28T21:23:49.325Z,26.07
2022-10-28T21:25:49.377Z,26.06
2022-10-28T21:27:49.369Z,26.08
2022-10-28T21:29:49.432Z,25.81
2022-10-28T21:31:49.408Z,26.07
2022-10-28T21:35:49.461Z,25.83
2022-10-28T21:37:49.478Z,25.94
2022-10-28T21:39:49.412Z,25.96
2022-10-28T21:41:49.445Z,25.99
2022-10-28T21:43:49.346Z,26.08
2022-10-28T21:45:49.455Z,25.98
2022-10-28T21:47:49.352Z,25.95
2022-10-28T21:49:49.334Z,25.94
2022-10-28T21:51:49.468Z,26.08
2022-10-28T21:53:49.372Z,26.07
2022-10-28T21:55:51.161Z,26.08
2022-10-28T21:57:49.372Z,26.07
2022-10-28T21:59:49.465Z,26.05
2022-10-28T22:01:49.430Z,26.06
2022-10-28T22:03:49.394Z,26.05
2022-10-28T22:05:49.497Z,26.04
2022-10-28T22:07:49.425Z,26.04
2022-10-28T22:09:49.503Z,25.99
2022-10-28T22:11:49.470Z,25.91
2022-10-28T22:13:49.472Z,26.00
2022-10-28T22:15:49.473Z,26.00
2022-10-28T22:17:49.500Z,25.91
2022-10-28T22:19:49.334Z,25.96
2022-10-28T22:21:49.485Z,25.99
2022-10-28T22:23:49.478Z,25.95
2022-10-28T22:25:49.430Z,26.07
2022-10-28T22:27:49.474Z,25.99
2022-10-28T22:29:49.502Z,26.01
2022-10-28T22:31:50.232Z,25.96
2022-10-28T22:33:49.473Z,25.99
2022-10-28T22:35:49.543Z,25.94
2022-10-28T22:37:49.527Z,26.03
2022-10-28T22:39:49.497Z,26.05
2022-10-28T22:41:49.418Z,26.09
2022-10-28T22:43:49.489Z,26.07
2022-10-28T22:45:50.237Z,26.07
2022-10-28T22:47:50.048Z,26.07
2022-10-28T22:49:49.540Z,26.05
2022-10-28T22:51:49.757Z,26.02
2022-10-28T22:53:49.385Z,26.04
2022-10-28T22:55:49.514Z,26.13
2022-10-28T22:57:49.452Z,26.07
2022-10-28T22:59:49.435Z,26.10
2022-10-28T23:01:49.621Z,26.02
2022-10-28T23:03:49.533Z,26.05
2022-10-28T23:05:49.553Z,26.03
2022-10-28T23:07:49.558Z,26.06
2022-10-28T23:09:49.457Z,25.98
2022-10-28T23:11:49.459Z,25.95
2022-10-28T23:13:49.546Z,25.95
2022-10-28T23:15:49.620Z,25.81
2022-10-28T23:17:49.510Z,26.07
2022-10-28T23:19:50.267Z,25.97
2022-10-28T23:21:49.775Z,25.92
2022-10-28T23:23:52.897Z,25.90
2022-10-28T23:25:49.553Z,25.87
2022-10-28T23:27:49.527Z,25.96
2022-10-28T23:29:49.413Z,25.86
2022-10-28T23:31:49.496Z,25.95
2022-10-28T23:33:49.533Z,25.94
2022-10-28T23:35:49.580Z,26.07
2022-10-28T23:37:49.562Z,25.86
2022-10-28T23:39:49.581Z,25.89
2022-10-28T23:41:49.600Z,25.92
2022-10-28T23:43:49.648Z,25.92
2022-10-28T23:45:49.615Z,26.11
2022-10-28T23:47:49.607Z,26.07
2022-10-28T23:49:49.595Z,25.99
2022-10-28T23:51:49.578Z,26.00
2022-10-28T23:53:49.591Z,26.07
2022-10-28T23:55:49.439Z,25.94
2022-10-28T23:57:49.600Z,25.85
2022-10-28T23:59:49.606Z,26.09
